createdAt,value
2016-12-27T00:00:46.140Z,27.11
2016-12-27T00:01:46.076Z,27.11
2016-12-27T00:02:46.035Z,27.11
2016-12-27T00:03:45.950Z,27.67
2016-12-27T00:04:45.894Z,27.09
2016-12-27T00:05:45.827Z,27.76
2016-12-27T00:06:45.764Z,27.2
2016-12-27T00:07:45.701Z,27.11
2016-12-27T00:08:45.637Z,27.11
2016-12-27T00:09:45.577Z,27.09
2016-12-27T00:10:45.516Z,27.76
2016-12-27T00:11:45.450Z,27.19
2016-12-27T00:12:45.388Z,27.29
2016-12-27T00:13:45.325Z,27.67
2016-12-27T00:14:45.261Z,27.78
2016-12-27T00:15:45.197Z,27.09
2016-12-27T00:16:45.139Z,27.11
2016-12-27T00:17:45.079Z,27.09
2016-12-27T00:18:45.012Z,27.09
2016-12-27T00:19:44.951Z,27.19
2016-12-27T00:20:44.888Z,27.11
2016-12-27T00:21:44.824Z,27.28
2016-12-27T00:22:44.760Z,27.2
2016-12-27T00:23:44.700Z,27.86
2016-12-27T00:24:44.636Z,27.01
2016-12-27T00:25:44.573Z,27.76
2016-12-27T00:26:44.508Z,27.11
2016-12-27T00:27:44.445Z,27.86
2016-12-27T00:28:44.385Z,27.28
2016-12-27T00:29:44.322Z,27.39
2016-12-27T00:30:44.260Z,27.29
2016-12-27T00:31:44.205Z,27.29
2016-12-27T00:32:44.136Z,27.28
2016-12-27T00:33:44.069Z,27.19
2016-12-27T00:34:44.010Z,27.11
2016-12-27T00:35:43.947Z,27.39
2016-12-27T00:36:43.883Z,27.2
2016-12-27T00:37:43.819Z,27.68
2016-12-27T00:38:43.757Z,27.2
2016-12-27T00:39:43.695Z,27.29
2016-12-27T00:40:43.643Z,27.28
2016-12-27T00:41:43.577Z,27.2
2016-12-27T00:42:43.516Z,27.2
2016-12-27T00:43:43.447Z,27.19
2016-12-27T00:44:43.380Z,27.19
2016-12-27T00:45:43.321Z,27.68
2016-12-27T00:46:43.258Z,27.29
2016-12-27T00:47:43.196Z,27.19
2016-12-27T00:48:44.333Z,27.39
2016-12-27T00:49:43.076Z,27.2
2016-12-27T00:50:43.008Z,27.39
2016-12-27T00:51:42.941Z,27.19
2016-12-27T00:52:42.882Z,27.19
2016-12-27T00:53:42.822Z,27.28
2016-12-27T00:54:43.060Z,27.19
2016-12-27T00:55:42.694Z,27.2
2016-12-27T00:56:42.635Z,27.19
2016-12-27T00:57:42.569Z,27.19
2016-12-27T00:58:42.508Z,27.19
2016-12-27T00:59:42.442Z,27.38
2016-12-27T01:01:38.053Z,27.19
2016-12-27T01:02:12.633Z,27.28
2016-12-27T01:03:12.331Z,27.39
2016-12-27T01:04:12.185Z,27.29
2016-12-27T01:05:12.124Z,27.38
2016-12-27T01:06:12.066Z,27.28
2016-12-27T01:07:12.001Z,27.29
2016-12-27T01:08:11.932Z,27.39
2016-12-27T01:09:12.180Z,27.39
2016-12-27T01:10:11.811Z,27.28
2016-12-27T01:11:11.749Z,27.29
2016-12-27T01:12:11.687Z,27.38
2016-12-27T01:13:11.648Z,27.39
2016-12-27T01:14:11.558Z,27.38
2016-12-27T01:15:11.495Z,27.38
2016-12-27T01:16:11.443Z,27.57
2016-12-27T01:17:11.372Z,27.49
2016-12-27T01:18:11.325Z,27.59
2016-12-27T01:19:11.255Z,27.57
2016-12-27T01:20:11.182Z,27.38
2016-12-27T01:21:11.120Z,27.38
2016-12-27T01:22:11.059Z,27.59
2016-12-27T01:23:10.997Z,27.39
2016-12-27T01:24:10.933Z,27.39
2016-12-27T01:25:10.873Z,27.39
2016-12-27T01:26:10.805Z,27.38
2016-12-27T01:27:10.746Z,27.38
2016-12-27T01:28:10.689Z,27.38
2016-12-27T01:29:10.621Z,27.39
2016-12-27T01:30:10.556Z,27.39
2016-12-27T01:31:10.509Z,27.38
2016-12-27T01:32:10.432Z,27.29
2016-12-27T01:33:10.375Z,27.59
2016-12-27T01:34:10.308Z,27.49
2016-12-27T01:35:10.242Z,27.39
2016-12-27T01:36:10.182Z,27.39
2016-12-27T01:37:10.119Z,27.59
2016-12-27T01:38:10.057Z,27.59
2016-12-27T01:39:09.998Z,27.39
2016-12-27T01:40:09.929Z,27.28
2016-12-27T01:41:09.868Z,27.59
2016-12-27T01:42:09.806Z,27.59
2016-12-27T01:43:09.747Z,27.59
2016-12-27T01:44:09.681Z,27.38
2016-12-27T01:45:09.628Z,27.39
2016-12-27T01:46:09.881Z,27.57
2016-12-27T01:47:09.495Z,27.48
2016-12-27T01:48:09.432Z,27.49
2016-12-27T01:49:09.370Z,27.49
2016-12-27T01:50:09.306Z,27.59
2016-12-27T01:51:09.244Z,27.57
2016-12-27T01:52:09.200Z,27.57
2016-12-27T01:53:09.116Z,27.57
2016-12-27T01:54:09.061Z,27.38
2016-12-27T01:55:08.990Z,27.49
2016-12-27T01:56:08.936Z,27.59
2016-12-27T01:57:08.868Z,27.49
2016-12-27T01:58:08.807Z,27.38
2016-12-27T01:59:08.741Z,27.39
2016-12-27T02:00:08.681Z,27.67
2016-12-27T02:01:08.618Z,27.67
2016-12-27T02:02:08.557Z,27.57
2016-12-27T02:03:08.490Z,27.49
2016-12-27T02:04:08.429Z,27.49
2016-12-27T02:05:08.369Z,27.57
2016-12-27T02:06:08.304Z,27.38
2016-12-27T02:07:08.561Z,27.68
2016-12-27T02:08:08.181Z,27.57
2016-12-27T02:09:08.725Z,27.76
2016-12-27T02:10:08.055Z,27.59
2016-12-27T02:11:07.998Z,27.67
2016-12-27T02:12:07.932Z,27.39
2016-12-27T02:13:07.867Z,27.59
2016-12-27T02:14:07.808Z,27.57
2016-12-27T02:15:07.753Z,27.28
2016-12-27T02:16:07.680Z,27.39
2016-12-27T02:17:07.624Z,27.57
2016-12-27T02:18:07.555Z,27.28
2016-12-27T02:19:07.490Z,27.59
2016-12-27T02:20:07.754Z,27.39
2016-12-27T02:21:07.366Z,27.59
2016-12-27T02:22:07.307Z,27.38
2016-12-27T02:23:07.260Z,27.28
2016-12-27T02:24:07.180Z,27.39
2016-12-27T02:25:07.117Z,27.49
2016-12-27T02:26:07.361Z,26.72
2016-12-27T02:27:06.995Z,27.2
2016-12-27T02:28:06.925Z,27.57
2016-12-27T02:29:06.865Z,27.28
2016-12-27T02:30:06.815Z,27.68
2016-12-27T02:31:06.741Z,26.91
2016-12-27T02:32:06.687Z,27.59
2016-12-27T02:33:06.617Z,27.59
2016-12-27T02:34:06.774Z,27.28
2016-12-27T02:35:06.503Z,27.57
2016-12-27T02:36:06.435Z,27.57
2016-12-27T02:37:06.365Z,27.38
2016-12-27T02:38:06.301Z,27
2016-12-27T02:39:06.241Z,27.68
2016-12-27T02:40:06.179Z,27.29
2016-12-27T02:41:06.126Z,27.39
2016-12-27T02:42:06.055Z,27.28
2016-12-27T02:43:06.297Z,27.29
2016-12-27T02:44:05.928Z,27.28
2016-12-27T02:45:05.866Z,27.29
2016-12-27T02:46:05.802Z,27.29
2016-12-27T02:47:05.739Z,27.28
2016-12-27T02:48:05.685Z,27.59
2016-12-27T02:49:05.618Z,27.29
2016-12-27T02:50:05.550Z,27.39
2016-12-27T02:51:05.494Z,27.28
2016-12-27T02:52:05.425Z,27.01
2016-12-27T02:53:05.367Z,27.38
2016-12-27T02:54:05.307Z,27.19
2016-12-27T02:55:05.552Z,27.29
2016-12-27T02:56:05.178Z,27.29
2016-12-27T02:57:05.115Z,27.28
2016-12-27T02:58:05.049Z,27.29
2016-12-27T02:59:05.200Z,27.38
2016-12-27T03:00:05.138Z,27.19
2016-12-27T03:01:04.862Z,27.38
2016-12-27T03:02:04.798Z,27.19
2016-12-27T03:03:04.738Z,27.38
2016-12-27T03:04:04.676Z,27.11
2016-12-27T03:05:04.612Z,27.38
2016-12-27T03:06:04.575Z,27.39
2016-12-27T03:07:04.487Z,27.28
2016-12-27T03:08:04.442Z,27.39
2016-12-27T03:09:04.362Z,27.28
2016-12-27T03:10:04.297Z,27.28
2016-12-27T03:11:04.238Z,27.2
2016-12-27T03:12:04.171Z,27.2
2016-12-27T03:13:04.109Z,27.19
2016-12-27T03:14:04.049Z,27.19
2016-12-27T03:15:03.998Z,27.2
2016-12-27T03:16:03.921Z,27.28
2016-12-27T03:17:04.069Z,27.09
2016-12-27T03:18:03.799Z,27.38
2016-12-27T03:19:03.735Z,27.19
2016-12-27T03:20:03.672Z,27.38
2016-12-27T03:21:03.613Z,27.29
2016-12-27T03:22:03.551Z,27.11
2016-12-27T03:23:03.508Z,27.2
2016-12-27T03:24:03.428Z,27.29
2016-12-27T03:25:03.357Z,27.19
2016-12-27T03:26:03.299Z,27.38
2016-12-27T03:27:03.541Z,27.19
2016-12-27T03:28:03.169Z,27.19
2016-12-27T03:29:03.107Z,27.28
2016-12-27T03:30:03.049Z,27.19
2016-12-27T03:31:02.998Z,27.19
2016-12-27T03:32:02.919Z,27.19
2016-12-27T03:33:02.857Z,27.2
2016-12-27T03:34:02.829Z,27.09
2016-12-27T03:35:02.732Z,27.2
2016-12-27T03:36:02.669Z,27.19
2016-12-27T03:37:02.604Z,27.28
2016-12-27T03:38:02.549Z,27.38
2016-12-27T03:39:02.491Z,27.2
2016-12-27T03:40:02.425Z,27.2
2016-12-27T03:41:02.367Z,27.28
2016-12-27T03:42:02.295Z,27.29
2016-12-27T03:43:02.229Z,27.29
2016-12-27T03:44:02.170Z,27.29
2016-12-27T03:45:02.105Z,27.28
2016-12-27T03:46:02.041Z,27.09
2016-12-27T03:47:01.988Z,27
2016-12-27T03:48:02.115Z,27.39
2016-12-27T03:49:01.852Z,27.28
2016-12-27T03:50:01.992Z,27.39
2016-12-27T03:51:01.725Z,27.11
2016-12-27T03:52:01.664Z,27.29
2016-12-27T03:53:01.600Z,27.48
2016-12-27T03:54:01.539Z,27.19
2016-12-27T03:55:01.477Z,27.28
2016-12-27T03:56:01.415Z,27.28
2016-12-27T03:57:01.355Z,27.2
2016-12-27T03:58:01.290Z,27.28
2016-12-27T03:59:01.226Z,27.28
2016-12-27T04:00:01.469Z,27.11
2016-12-27T04:01:01.100Z,27.11
2016-12-27T04:02:01.037Z,27.28
2016-12-27T04:03:00.974Z,27.09
2016-12-27T04:04:00.917Z,27.09
2016-12-27T04:05:00.849Z,27.49
2016-12-27T04:06:00.791Z,27.01
2016-12-27T04:07:00.723Z,27.2
2016-12-27T04:08:00.661Z,27.49
2016-12-27T04:09:00.599Z,27.01
2016-12-27T04:10:00.534Z,27.2
2016-12-27T04:11:00.474Z,27.11
2016-12-27T04:12:00.410Z,27.09
2016-12-27T04:13:00.656Z,27.29
2016-12-27T04:14:00.284Z,27.49
2016-12-27T04:15:00.223Z,27.19
2016-12-27T04:16:00.161Z,27.38
2016-12-27T04:17:00.101Z,27.09
2016-12-27T04:18:00.035Z,27.49
2016-12-27T04:19:00.286Z,27
2016-12-27T04:19:59.910Z,27.19
2016-12-27T04:20:59.846Z,27.09
2016-12-27T04:21:59.792Z,27.19
2016-12-27T04:22:59.726Z,27.29
2016-12-27T04:23:59.663Z,27.01
2016-12-27T04:24:59.597Z,27.2
2016-12-27T04:25:59.535Z,27.11
2016-12-27T04:26:59.480Z,27.09
2016-12-27T04:27:59.412Z,27.2
2016-12-27T04:28:59.352Z,27.19
2016-12-27T04:29:59.286Z,27.49
2016-12-27T04:30:59.226Z,27.2
2016-12-27T04:32:00.359Z,27.09
2016-12-27T04:32:59.099Z,27.11
2016-12-27T04:33:59.239Z,27.09
2016-12-27T04:34:58.974Z,27.09
2016-12-27T04:35:58.940Z,27.19
2016-12-27T04:36:58.851Z,27.09
2016-12-27T04:37:58.792Z,27.09
2016-12-27T04:38:58.929Z,27.48
2016-12-27T04:39:58.662Z,27
2016-12-27T04:40:58.608Z,27.09
2016-12-27T04:41:58.537Z,27.09
2016-12-27T04:42:58.476Z,27.01
2016-12-27T04:43:58.411Z,27.09
2016-12-27T04:44:58.684Z,27.11
2016-12-27T04:45:58.289Z,27.49
2016-12-27T04:46:58.226Z,27.19
2016-12-27T04:47:58.163Z,27.39
2016-12-27T04:48:58.098Z,27.09
2016-12-27T04:49:58.038Z,27.2
2016-12-27T04:50:57.974Z,27.01
2016-12-27T04:51:57.910Z,27.38
2016-12-27T04:52:57.849Z,27.01
2016-12-27T04:53:57.785Z,27.11
2016-12-27T04:54:57.724Z,27.11
2016-12-27T04:55:57.662Z,27.09
2016-12-27T04:56:57.599Z,27.29
2016-12-27T04:57:57.535Z,27.2
2016-12-27T04:58:57.475Z,27.11
2016-12-27T04:59:57.410Z,27.09
2016-12-27T05:00:57.348Z,27.19
2016-12-27T05:02:06.688Z,27.09
2016-12-27T05:02:57.225Z,27.09
2016-12-27T05:03:57.159Z,27
2016-12-27T05:04:57.100Z,27.2
2016-12-27T05:05:57.037Z,27.19
2016-12-27T05:06:56.975Z,27
2016-12-27T05:07:56.910Z,27.29
2016-12-27T05:08:56.849Z,27.29
2016-12-27T05:09:56.784Z,27.2
2016-12-27T05:10:56.720Z,27.19
2016-12-27T05:11:56.660Z,27.19
2016-12-27T05:12:56.597Z,27.2
2016-12-27T05:13:56.531Z,27.09
2016-12-27T05:14:56.475Z,27.2
2016-12-27T05:15:56.408Z,27
2016-12-27T05:16:56.343Z,27.2
2016-12-27T05:17:56.303Z,27.2
2016-12-27T05:18:56.229Z,26.9
2016-12-27T05:19:56.482Z,26.7
2016-12-27T05:20:56.097Z,26.42
2016-12-27T05:21:56.034Z,26.33
2016-12-27T05:22:55.968Z,26.51
2016-12-27T05:23:55.906Z,26.51
2016-12-27T05:24:55.843Z,26.42
2016-12-27T05:25:55.783Z,26.22
2016-12-27T05:26:55.720Z,26.53
2016-12-27T05:27:55.668Z,26.53
2016-12-27T05:28:55.601Z,26.32
2016-12-27T05:29:55.551Z,26.42
2016-12-27T05:30:55.489Z,26.22
2016-12-27T05:31:55.418Z,26.22
2016-12-27T05:32:55.651Z,26.23
2016-12-27T05:33:55.292Z,26.22
2016-12-27T05:34:55.227Z,26.32
2016-12-27T05:35:55.152Z,26.22
2016-12-27T05:36:55.102Z,26.03
2016-12-27T05:37:55.050Z,26.03
2016-12-27T05:38:54.991Z,26.12
2016-12-27T05:39:54.940Z,26.22
2016-12-27T05:40:54.849Z,26.03
2016-12-27T05:41:54.792Z,26.12
2016-12-27T05:42:54.724Z,25.84
2016-12-27T05:43:54.663Z,25.84
2016-12-27T05:44:55.038Z,26.03
2016-12-27T05:45:54.541Z,26.03
2016-12-27T05:46:54.477Z,25.93
2016-12-27T05:47:54.404Z,26.03
2016-12-27T05:48:54.341Z,26.12
2016-12-27T05:49:54.288Z,25.93
2016-12-27T05:50:54.217Z,25.84
2016-12-27T05:51:54.163Z,26.12
2016-12-27T05:52:54.111Z,25.84
2016-12-27T05:53:54.038Z,25.84
2016-12-27T05:54:53.965Z,25.93
2016-12-27T05:55:53.921Z,25.84
2016-12-27T05:56:53.839Z,25.64
2016-12-27T05:57:53.780Z,25.93
2016-12-27T05:58:53.724Z,25.74
2016-12-27T05:59:53.988Z,25.64
2016-12-27T06:00:53.600Z,25.74
2016-12-27T06:01:53.539Z,25.74
2016-12-27T06:02:53.465Z,25.74
2016-12-27T06:03:53.714Z,25.84
2016-12-27T06:04:53.657Z,25.64
2016-12-27T06:05:53.287Z,25.74
2016-12-27T06:06:53.213Z,25.64
2016-12-27T06:07:53.173Z,25.64
2016-12-27T06:08:53.100Z,25.64
2016-12-27T06:09:53.034Z,25.55
2016-12-27T06:10:52.967Z,25.55
2016-12-27T06:11:52.899Z,25.64
2016-12-27T06:12:52.839Z,25.64
2016-12-27T06:13:52.780Z,25.64
2016-12-27T06:14:52.713Z,25.55
2016-12-27T06:15:52.650Z,25.55
2016-12-27T06:16:52.587Z,25.55
2016-12-27T06:17:52.524Z,25.55
2016-12-27T06:18:52.464Z,25.64
2016-12-27T06:19:52.398Z,25.55
2016-12-27T06:20:52.340Z,25.45
2016-12-27T06:21:52.275Z,25.55
2016-12-27T06:22:52.533Z,25.74
2016-12-27T06:23:52.155Z,25.55
2016-12-27T06:24:52.087Z,25.64
2016-12-27T06:25:52.024Z,25.55
2016-12-27T06:26:51.965Z,25.35
2016-12-27T06:27:51.906Z,25.35
2016-12-27T06:28:51.834Z,25.45
2016-12-27T06:29:51.773Z,25.45
2016-12-27T06:30:51.712Z,25.35
2016-12-27T06:31:51.960Z,25.55
2016-12-27T06:32:51.891Z,25.45
2016-12-27T06:33:51.730Z,25.45
2016-12-27T06:34:51.462Z,25.45
2016-12-27T06:35:51.399Z,25.45
2016-12-27T06:36:51.442Z,25.45
2016-12-27T06:37:51.274Z,25.55
2016-12-27T06:38:51.211Z,25.55
2016-12-27T06:39:51.152Z,25.35
2016-12-27T06:40:51.087Z,25.55
2016-12-27T06:41:51.024Z,25.55
2016-12-27T06:42:50.964Z,25.45
2016-12-27T06:43:50.899Z,25.55
2016-12-27T06:44:50.835Z,25.64
2016-12-27T06:45:50.776Z,25.45
2016-12-27T06:46:50.712Z,25.55
2016-12-27T06:47:50.647Z,25.45
2016-12-27T06:48:50.586Z,25.55
2016-12-27T06:49:50.522Z,25.45
2016-12-27T06:50:50.459Z,25.64
2016-12-27T06:51:50.396Z,25.45
2016-12-27T06:52:50.334Z,25.45
2016-12-27T06:53:50.272Z,25.35
2016-12-27T06:54:50.209Z,25.35
2016-12-27T06:55:50.147Z,25.35
2016-12-27T06:56:50.086Z,25.35
2016-12-27T06:57:50.022Z,25.35
2016-12-27T06:58:49.967Z,25.55
2016-12-27T06:59:49.895Z,25.64
2016-12-27T07:00:49.831Z,25.35
2016-12-27T07:01:49.769Z,25.45
2016-12-27T07:02:49.706Z,25.45
2016-12-27T07:03:49.647Z,25.45
2016-12-27T07:04:49.889Z,25.35
2016-12-27T07:05:49.519Z,25.35
2016-12-27T07:06:49.455Z,25.45
2016-12-27T07:07:49.392Z,25.45
2016-12-27T07:08:49.332Z,25.26
2016-12-27T07:09:49.280Z,25.55
2016-12-27T07:10:49.205Z,25.45
2016-12-27T07:11:49.141Z,25.45
2016-12-27T07:12:49.088Z,25.35
2016-12-27T07:13:49.015Z,25.35
2016-12-27T07:14:48.953Z,25.64
2016-12-27T07:15:48.903Z,25.45
2016-12-27T07:16:49.134Z,25.45
2016-12-27T07:17:48.765Z,25.35
2016-12-27T07:18:48.702Z,25.45
2016-12-27T07:19:48.638Z,25.35
2016-12-27T07:20:48.584Z,25.35
2016-12-27T07:21:48.515Z,25.35
2016-12-27T07:22:48.452Z,25.35
2016-12-27T07:23:48.388Z,25.35
2016-12-27T07:24:48.331Z,25.55
2016-12-27T07:25:48.264Z,25.55
2016-12-27T07:26:48.201Z,25.35
2016-12-27T07:27:48.139Z,25.45
2016-12-27T07:28:48.078Z,25.35
2016-12-27T07:29:48.014Z,25.45
2016-12-27T07:30:47.953Z,25.55
2016-12-27T07:31:47.888Z,25.55
2016-12-27T07:32:47.825Z,25.64
2016-12-27T07:33:47.765Z,25.45
2016-12-27T07:34:47.698Z,25.45
2016-12-27T07:35:47.636Z,25.55
2016-12-27T07:36:47.882Z,25.64
2016-12-27T07:37:47.512Z,25.55
2016-12-27T07:38:47.449Z,25.55
2016-12-27T07:39:47.386Z,25.35
2016-12-27T07:40:47.327Z,25.45
2016-12-27T07:41:47.262Z,25.55
2016-12-27T07:42:47.200Z,25.35
2016-12-27T07:43:47.135Z,25.55
2016-12-27T07:44:47.073Z,25.55
2016-12-27T07:45:47.009Z,25.55
2016-12-27T07:46:46.952Z,25.45
2016-12-27T07:47:46.884Z,25.45
2016-12-27T07:48:46.823Z,25.55
2016-12-27T07:49:46.774Z,25.55
2016-12-27T07:50:46.700Z,25.45
2016-12-27T07:51:46.660Z,25.26
2016-12-27T07:52:46.582Z,25.45
2016-12-27T07:53:46.510Z,25.35
2016-12-27T07:54:46.446Z,25.35
2016-12-27T07:55:46.735Z,25.35
2016-12-27T07:56:46.319Z,25.26
2016-12-27T07:57:46.293Z,25.26
2016-12-27T07:58:46.196Z,25.26
2016-12-27T07:59:46.132Z,25.45
2016-12-27T08:00:46.081Z,25.35
2016-12-27T08:01:46.312Z,25.35
2016-12-27T08:02:45.943Z,25.55
2016-12-27T08:03:45.903Z,25.45
2016-12-27T08:04:45.820Z,25.45
2016-12-27T08:05:45.756Z,25.45
2016-12-27T08:06:45.695Z,25.35
2016-12-27T08:07:45.630Z,25.45
2016-12-27T08:08:45.881Z,25.45
2016-12-27T08:09:45.504Z,25.45
2016-12-27T08:10:45.441Z,25.45
2016-12-27T08:11:45.610Z,25.45
2016-12-27T08:12:45.317Z,25.35
2016-12-27T08:13:45.260Z,25.45
2016-12-27T08:14:45.192Z,25.45
2016-12-27T08:15:45.131Z,25.45
2016-12-27T08:16:45.068Z,25.26
2016-12-27T08:17:45.005Z,25.26
2016-12-27T08:18:44.941Z,25.35
2016-12-27T08:19:44.878Z,25.45
2016-12-27T08:20:44.816Z,25.45
2016-12-27T08:21:44.752Z,25.26
2016-12-27T08:22:44.690Z,25.35
2016-12-27T08:23:44.629Z,25.35
2016-12-27T08:24:44.562Z,25.35
2016-12-27T08:25:44.501Z,25.35
2016-12-27T08:26:44.642Z,25.45
2016-12-27T08:27:44.376Z,25.35
2016-12-27T08:28:44.314Z,25.26
2016-12-27T08:29:44.252Z,25.35
2016-12-27T08:30:44.188Z,25.45
2016-12-27T08:31:44.124Z,25.45
2016-12-27T08:32:44.073Z,25.35
2016-12-27T08:33:44.321Z,25.35
2016-12-27T08:34:43.936Z,25.35
2016-12-27T08:35:43.876Z,25.45
2016-12-27T08:36:43.812Z,25.45
2016-12-27T08:37:43.983Z,25.35
2016-12-27T08:38:43.688Z,25.35
2016-12-27T08:39:43.625Z,25.35
2016-12-27T08:40:43.560Z,25.35
2016-12-27T08:41:43.496Z,25.35
2016-12-27T08:42:43.749Z,25.35
2016-12-27T08:43:43.374Z,25.26
2016-12-27T08:44:43.309Z,25.35
2016-12-27T08:45:43.248Z,25.35
2016-12-27T08:46:43.186Z,25.35
2016-12-27T08:47:43.129Z,25.26
2016-12-27T08:48:43.061Z,25.26
2016-12-27T08:49:43.000Z,25.26
2016-12-27T08:50:42.936Z,25.35
2016-12-27T08:51:42.875Z,25.45
2016-12-27T08:52:42.812Z,25.45
2016-12-27T08:53:42.751Z,25.35
2016-12-27T08:54:42.684Z,25.26
2016-12-27T08:55:42.621Z,25.45
2016-12-27T08:56:42.559Z,25.35
2016-12-27T08:57:42.496Z,25.35
2016-12-27T08:58:42.434Z,25.37
2016-12-27T08:59:42.372Z,25.35
2016-12-27T09:00:42.406Z,25.55
2016-12-27T09:01:42.246Z,25.45
2016-12-27T09:02:54.301Z,25.45
2016-12-27T09:03:42.122Z,25.35
2016-12-27T09:04:42.058Z,25.35
2016-12-27T09:05:42.005Z,25.45
2016-12-27T09:06:41.934Z,25.26
2016-12-27T09:07:41.871Z,25.45
2016-12-27T09:08:41.840Z,25.45
2016-12-27T09:09:41.749Z,25.35
2016-12-27T09:10:41.711Z,25.35
2016-12-27T09:11:41.618Z,25.26
2016-12-27T09:12:41.562Z,25.45
2016-12-27T09:13:41.497Z,25.26
2016-12-27T09:14:41.430Z,25.26
2016-12-27T09:15:41.374Z,25.26
2016-12-27T09:16:41.305Z,25.35
2016-12-27T09:17:41.244Z,25.35
2016-12-27T09:18:41.385Z,25.45
2016-12-27T09:19:41.119Z,25.26
2016-12-27T09:20:41.057Z,25.16
2016-12-27T09:21:41.301Z,25.35
2016-12-27T09:22:40.931Z,25.16
2016-12-27T09:23:40.868Z,25.16
2016-12-27T09:24:40.806Z,25.35
2016-12-27T09:25:40.748Z,24.97
2016-12-27T09:26:40.680Z,25.16
2016-12-27T09:27:40.616Z,25.35
2016-12-27T09:28:40.553Z,25.16
2016-12-27T09:29:40.490Z,25.16
2016-12-27T09:30:40.427Z,25.16
2016-12-27T09:31:40.363Z,24.97
2016-12-27T09:32:40.311Z,25.16
2016-12-27T09:33:40.239Z,25.07
2016-12-27T09:34:40.187Z,25.16
2016-12-27T09:35:40.115Z,24.97
2016-12-27T09:36:40.051Z,25.07
2016-12-27T09:37:39.989Z,25.07
2016-12-27T09:38:39.940Z,25.18
2016-12-27T09:39:39.865Z,24.87
2016-12-27T09:40:39.810Z,25.08
2016-12-27T09:41:39.741Z,24.77
2016-12-27T09:42:39.671Z,24.68
2016-12-27T09:43:39.610Z,24.97
2016-12-27T09:44:39.868Z,24.98
2016-12-27T09:45:39.486Z,24.87
2016-12-27T09:46:39.421Z,24.87
2016-12-27T09:47:39.358Z,24.87
2016-12-27T09:48:39.302Z,24.87
2016-12-27T09:49:39.247Z,24.87
2016-12-27T09:50:39.170Z,24.87
2016-12-27T09:51:39.109Z,24.77
2016-12-27T09:52:39.360Z,24.79
2016-12-27T09:53:38.982Z,24.77
2016-12-27T09:54:38.924Z,24.69
2016-12-27T09:55:39.170Z,24.68
2016-12-27T09:56:39.116Z,24.79
2016-12-27T09:57:38.744Z,24.79
2016-12-27T09:58:38.875Z,24.68
2016-12-27T09:59:38.608Z,24.39
2016-12-27T10:00:38.544Z,24.29
2016-12-27T10:01:38.801Z,24.5
2016-12-27T10:02:38.422Z,24.49
2016-12-27T10:03:38.357Z,24.29
2016-12-27T10:04:38.298Z,24.2
2016-12-27T10:05:38.230Z,24.3
2016-12-27T10:06:38.171Z,24.2
2016-12-27T10:07:38.105Z,24.2
2016-12-27T10:08:38.046Z,24.11
2016-12-27T10:09:38.318Z,24.2
2016-12-27T10:10:38.002Z,24.1
2016-12-27T10:11:37.881Z,24.29
2016-12-27T10:12:37.799Z,24.1
2016-12-27T10:13:38.042Z,24.1
2016-12-27T10:14:37.685Z,24.11
2016-12-27T10:15:37.620Z,23.91
2016-12-27T10:16:37.546Z,23.82
2016-12-27T10:17:37.483Z,23.72
2016-12-27T10:18:37.437Z,23.72
2016-12-27T10:19:37.354Z,23.82
2016-12-27T10:20:38.139Z,23.91
2016-12-27T10:21:37.415Z,23.52
2016-12-27T10:22:37.276Z,23.81
2016-12-27T10:23:37.196Z,23.34
2016-12-27T10:24:37.090Z,23.52
2016-12-27T10:25:37.004Z,23.92
2016-12-27T10:26:37.272Z,23.62
2016-12-27T10:27:36.854Z,23.33
2016-12-27T10:28:37.328Z,23.44
2016-12-27T10:29:36.798Z,23.62
2016-12-27T10:30:36.712Z,23.62
2016-12-27T10:31:36.727Z,23.33
2016-12-27T10:32:36.539Z,23.24
2016-12-27T10:33:36.486Z,23.92
2016-12-27T10:34:36.418Z,23.63
2016-12-27T10:35:36.348Z,23.81
2016-12-27T10:36:36.287Z,23.14
2016-12-27T10:37:36.243Z,23.04
2016-12-27T10:38:36.159Z,23.24
2016-12-27T10:39:36.099Z,23.33
2016-12-27T10:40:36.037Z,23.24
2016-12-27T10:41:36.007Z,23.24
2016-12-27T10:42:35.911Z,23.52
2016-12-27T10:43:35.917Z,23.24
2016-12-27T10:44:35.785Z,22.86
2016-12-27T10:45:36.068Z,23.04
2016-12-27T10:46:35.663Z,23.05
2016-12-27T10:47:35.597Z,22.94
2016-12-27T10:48:35.532Z,22.94
2016-12-27T10:49:35.471Z,22.85
2016-12-27T10:50:35.717Z,22.85
2016-12-27T10:51:35.355Z,23.04
2016-12-27T10:52:35.280Z,23.04
2016-12-27T10:53:35.219Z,23.05
2016-12-27T10:54:35.173Z,22.85
2016-12-27T10:55:35.091Z,22.86
2016-12-27T10:56:35.032Z,22.94
2016-12-27T10:57:34.972Z,23.04
2016-12-27T10:58:34.912Z,23.04
2016-12-27T10:59:34.842Z,22.94
2016-12-27T11:00:34.778Z,23.04
2016-12-27T11:01:34.718Z,23.14
2016-12-27T11:02:34.653Z,22.94
2016-12-27T11:03:34.591Z,22.94
2016-12-27T11:04:34.527Z,23.14
2016-12-27T11:05:34.465Z,22.96
2016-12-27T11:06:34.713Z,22.94
2016-12-27T11:07:34.339Z,23.05
2016-12-27T11:08:34.588Z,22.85
2016-12-27T11:09:34.267Z,22.85
2016-12-27T11:10:34.151Z,22.94
2016-12-27T11:11:34.095Z,22.96
2016-12-27T11:12:34.023Z,22.75
2016-12-27T11:13:34.278Z,22.56
2016-12-27T11:14:33.897Z,22.85
2016-12-27T11:15:33.893Z,22.66
2016-12-27T11:16:33.818Z,22.75
2016-12-27T11:17:33.718Z,22.75
2016-12-27T11:18:33.658Z,22.46
2016-12-27T11:19:33.657Z,22.67
2016-12-27T11:20:33.525Z,22.56
2016-12-27T11:21:33.458Z,22.46
2016-12-27T11:22:33.396Z,22.56
2016-12-27T11:23:33.340Z,22.75
2016-12-27T11:24:33.269Z,22.46
2016-12-27T11:25:33.211Z,22.46
2016-12-27T11:26:33.145Z,22.46
2016-12-27T11:27:33.083Z,22.66
2016-12-27T11:28:33.017Z,22.46
2016-12-27T11:29:32.957Z,22.47
2016-12-27T11:30:33.207Z,22.56
2016-12-27T11:31:32.832Z,22.46
2016-12-27T11:32:32.788Z,22.56
2016-12-27T11:33:32.766Z,22.66
2016-12-27T11:34:32.675Z,22.27
2016-12-27T11:35:32.577Z,22.36
2016-12-27T11:36:32.516Z,22.27
2016-12-27T11:37:32.452Z,22.36
2016-12-27T11:38:32.395Z,22.27
2016-12-27T11:39:32.357Z,22.67
2016-12-27T11:40:32.263Z,22.56
2016-12-27T11:41:32.537Z,22.56
2016-12-27T11:42:32.213Z,22.67
2016-12-27T11:43:32.393Z,22.66
2016-12-27T11:44:32.015Z,22.56
2016-12-27T11:45:31.955Z,22.56
2016-12-27T11:46:32.112Z,22.46
2016-12-27T11:47:31.826Z,22.47
2016-12-27T11:48:31.781Z,22.66
2016-12-27T11:49:31.746Z,22.46
2016-12-27T11:50:31.647Z,22.75
2016-12-27T11:51:31.582Z,22.66
2016-12-27T11:52:31.541Z,22.94
2016-12-27T11:53:31.711Z,22.76
2016-12-27T11:54:31.382Z,22.94
2016-12-27T11:55:31.713Z,23.14
2016-12-27T11:56:31.608Z,22.94
2016-12-27T11:57:31.218Z,22.66
2016-12-27T11:58:31.145Z,22.66
2016-12-27T11:59:31.074Z,22.86
2016-12-27T12:00:31.093Z,22.46
2016-12-27T12:01:30.945Z,22.46
2016-12-27T12:02:30.885Z,22.75
2016-12-27T12:03:30.839Z,22.57
2016-12-27T12:04:30.814Z,22.46
2016-12-27T12:05:30.694Z,22.67
2016-12-27T12:06:30.698Z,22.56
2016-12-27T12:07:30.621Z,22.56
2016-12-27T12:08:30.528Z,22.46
2016-12-27T12:09:30.770Z,22.56
2016-12-27T12:10:30.394Z,22.75
2016-12-27T12:11:30.332Z,22.66
2016-12-27T12:12:30.565Z,22.66
2016-12-27T12:13:30.211Z,22.56
2016-12-27T12:14:30.185Z,22.56
2016-12-27T12:15:30.099Z,22.76
2016-12-27T12:16:30.254Z,22.47
2016-12-27T12:17:29.964Z,22.46
2016-12-27T12:18:29.879Z,22.56
2016-12-27T12:19:29.814Z,22.66
2016-12-27T12:20:30.072Z,22.67
2016-12-27T12:21:29.694Z,22.67
2016-12-27T12:22:29.629Z,22.66
2016-12-27T12:23:29.565Z,22.66
2016-12-27T12:24:29.499Z,22.66
2016-12-27T12:25:29.444Z,22.46
2016-12-27T12:26:29.377Z,22.46
2016-12-27T12:27:29.313Z,22.27
2016-12-27T12:28:29.251Z,22.57
2016-12-27T12:29:29.516Z,22.36
2016-12-27T12:30:29.131Z,22.27
2016-12-27T12:31:29.065Z,22.38
2016-12-27T12:32:29.004Z,22.27
2016-12-27T12:33:28.940Z,22.36
2016-12-27T12:34:29.183Z,22.66
2016-12-27T12:35:28.819Z,22.17
2016-12-27T12:36:28.760Z,22.36
2016-12-27T12:37:28.995Z,22.27
2016-12-27T12:38:28.625Z,22.27
2016-12-27T12:39:28.564Z,22.08
2016-12-27T12:40:28.500Z,22.27
2016-12-27T12:41:28.436Z,22.27
2016-12-27T12:42:28.384Z,22.17
2016-12-27T12:43:28.912Z,21.98
2016-12-27T12:44:28.291Z,21.98
2016-12-27T12:45:28.197Z,21.69
2016-12-27T12:46:28.171Z,21.4
2016-12-27T12:47:28.129Z,21.5
2016-12-27T12:48:28.002Z,21.69
2016-12-27T12:49:27.941Z,21.61
2016-12-27T12:50:27.940Z,21.59
2016-12-27T12:51:27.820Z,21.69
2016-12-27T12:52:27.791Z,21.79
2016-12-27T12:53:27.684Z,21.59
2016-12-27T12:54:27.630Z,21.79